• Join FlightAware (Why Join?)
  • Login
  • US Flag 
04:35AM EDT


 

Airport Tracker/Info


-or-


 

Live Flight TrackerFlight Track Log ✈ JUS196 ✈ 25-Apr-2013 ✈ MMMY / MTY - KYIP

Flight Track Log - Related Links

Times and Time Zones

All times are in EDT time to prevent confusion due to time zone crossing. See the JUS196 flight status page for this flight to view local times or setup timezone preferences in your user account.

Time Position Orientation Groundspeed Altitude Reporting Facility
EDT Latitude Longitude Course Direction KTS MPH feet Rate Location/Type
05:53PM 29.0173 -97.4521 35° Northeast  Level Estimated
05:54PM 29.1118 -97.3716 37° Northeast  Level Estimated
05:55PM 29.2062 -97.2909 37° Northeast  Level Estimated
05:56PM 29.3006 -97.2101 37° Northeast  Level Estimated
05:57PM 29.3943 -97.1297 37° Northeast  Level Estimated
05:58PM 29.4880 -97.0490 37° Northeast  Level Estimated
05:59PM 29.5816 -96.9683 37° Northeast  Level Estimated
06:00PM 29.6752 -96.8874 37° Northeast  Level Estimated
06:01PM 29.7688 -96.8063 37° Northeast  Level Estimated
06:02PM 29.8623 -96.7251 37° Northeast  Level Estimated
06:03PM 29.9557 -96.6438 37° Northeast  Level Estimated
06:04PM 30.0492 -96.5622 37° Northeast  Level Estimated
06:05PM 30.1425 -96.4806 37° Northeast  Level Estimated
06:06PM 30.2358 -96.3988 37° Northeast  Level Estimated
06:07PM 30.3290 -96.3168 37° Northeast  Level Estimated
06:08PM 30.4222 -96.2346 37° Northeast  Level Estimated
06:09PM 30.5154 -96.1524 37° Northeast  Level Estimated
06:10PM 30.6085 -96.0699 37° Northeast  Level Estimated
06:11PM 30.7015 -95.9873 37° Northeast  Level Estimated
06:12PM 30.7945 -95.9045 37° Northeast  Level Estimated
06:13PM 30.8874 -95.8216 37° Northeast  Level Estimated
06:14PM 30.9803 -95.7385 37° Northeast  Level Estimated
06:15PM 31.0738 -95.6547 38° Northeast  Level Estimated
06:16PM 31.1672 -95.5706 38° Northeast  Level Estimated
06:17PM 31.2606 -95.4865 38° Northeast  Level Estimated
06:18PM 31.3539 -95.4021 38° Northeast  Level Estimated
06:19PM 31.4472 -95.3176 38° Northeast  Level Estimated
06:20PM 31.5404 -95.2329 38° Northeast  Level Estimated
06:21PM 31.6336 -95.1481 38° Northeast  Level Estimated
06:22PM 31.7267 -95.0631 38° Northeast  Level Estimated
06:23PM 31.8197 -94.9779 38° Northeast  Level Estimated
06:24PM 31.9127 -94.8925 38° Northeast  Level Estimated
06:25PM 32.0056 -94.8070 38° Northeast  Level Estimated
06:26PM 32.0985 -94.7213 38° Northeast  Level Estimated
06:27PM 32.1913 -94.6354 38° Northeast  Level Estimated
06:28PM 32.2841 -94.5493 38° Northeast  Level Estimated
06:29PM 32.3768 -94.4631 38° Northeast  Level Estimated
06:30PM 32.4694 -94.3767 38° Northeast  Level Estimated
06:31PM 32.5620 -94.2901 38° Northeast  Level Estimated
06:32PM 32.6545 -94.2033 38° Northeast  Level Estimated
06:33PM 32.7470 -94.1164 38° Northeast  Level Estimated
06:34PM 32.8394 -94.0293 38° Northeast  Level Estimated
06:35PM 32.9317 -93.9419 38° Northeast  Level Estimated
06:36PM 33.0240 -93.8545 38° Northeast  Level Estimated
06:37PM 33.1162 -93.7668 39° Northeast  Level Estimated
06:38PM 33.2084 -93.6789 39° Northeast  Level Estimated
06:39PM 33.3005 -93.5909 39° Northeast  Level Estimated
06:40PM 33.3925 -93.5027 39° Northeast  Level Estimated
06:41PM 33.4845 -93.4142 39° Northeast  Level Estimated
06:42PM 33.5764 -93.3256 39° Northeast  Level Estimated
06:43PM 33.6683 -93.2368 39° Northeast  Level Estimated
06:44PM 33.7600 -93.1479 39° Northeast  Level Estimated
06:45PM 33.8518 -93.0587 39° Northeast  Level Estimated
06:46PM 33.9434 -92.9693 39° Northeast  Level Estimated
06:47PM 34.0350 -92.8798 39° Northeast  Level Estimated
06:48PM 34.1265 -92.7900 39° Northeast  Level Estimated
06:49PM 34.2180 -92.7001 39° Northeast  Level Estimated
06:50PM 34.3094 -92.6099 39° Northeast  Level Estimated
06:51PM 34.4007 -92.5196 39° Northeast  Level Estimated
06:52PM 34.4920 -92.4291 39° Northeast  Level Estimated
06:53PM 34.5831 -92.3383 39° Northeast  Level Estimated
06:54PM 34.6743 -92.2474 39° Northeast  Level Estimated
06:55PM 34.7653 -92.1563 39° Northeast  Level Estimated
06:56PM 34.8563 -92.0650 39° Northeast  Level Estimated
06:57PM 34.9473 -91.9734 40° Northeast  Level Estimated
06:58PM 35.0381 -91.8817 40° Northeast  Level Estimated
06:59PM 35.1289 -91.7897 40° Northeast  Level Estimated
07:00PM 35.2196 -91.6976 40° Northeast  Level Estimated
07:01PM 35.3102 -91.6052 40° Northeast  Level Estimated
07:02PM 35.4008 -91.5127 40° Northeast  Level Estimated
07:03PM 35.4913 -91.4199 40° Northeast  Level Estimated
07:04PM 35.5817 -91.3269 40° Northeast  Level Estimated
07:05PM 35.6721 -91.2337 40° Northeast  Level Estimated
07:06PM 35.7624 -91.1403 40° Northeast  Level Estimated
07:07PM 35.8526 -91.0467 40° Northeast  Level Estimated
07:08PM 35.9427 -90.9529 40° Northeast  Level Estimated
07:09PM 36.0328 -90.8589 40° Northeast  Level Estimated
07:10PM 36.1228 -90.7646 40° Northeast  Level Estimated
07:11PM 36.2127 -90.6702 40° Northeast  Level Estimated
07:12PM 36.3026 -90.5755 40° Northeast  Level Estimated
07:13PM 36.3923 -90.4806 40° Northeast  Level Estimated
07:14PM 36.4821 -90.3854 40° Northeast  Level Estimated
07:15PM 36.5717 -90.2901 40° Northeast  Level Estimated
07:16PM 36.6612 -90.1945 41° Northeast  Level Estimated
07:17PM 36.7507 -90.0987 41° Northeast  Level Estimated
07:18PM 36.8399 -90.0029 41° Northeast  Level Estimated
07:19PM 36.9290 -89.9069 41° Northeast  Level Estimated
07:20PM 37.0180 -89.8107 41° Northeast  Level Estimated
07:21PM 37.1070 -89.7142 41° Northeast  Level Estimated
07:22PM 37.1959 -89.6175 41° Northeast  Level Estimated
07:23PM 37.2847 -89.5206 41° Northeast  Level Estimated
07:24PM 37.3734 -89.4234 41° Northeast  Level Estimated
07:25PM 37.4620 -89.3260 41° Northeast  Level Estimated
07:26PM 37.5506 -89.2284 41° Northeast  Level Estimated
07:27PM 37.6391 -89.1306 41° Northeast  Level Estimated
07:28PM 37.7275 -89.0325 41° Northeast  Level Estimated
07:29PM 37.8152 -88.9348 41° Northeast  Level Estimated
07:30PM 37.9029 -88.8369 41° Northeast  Level Estimated
07:31PM 37.9905 -88.7388 41° Northeast  Level Estimated
07:32PM 38.0779 -88.6404 41° Northeast  Level Estimated
07:33PM 38.1654 -88.5418 42° Northeast  Level Estimated
07:34PM 38.2527 -88.4430 42° Northeast  Level Estimated
07:35PM 38.3399 -88.3439 42° Northeast  Level Estimated
07:36PM 38.4271 -88.2446 42° Northeast  Level Estimated
07:37PM 38.5142 -88.1450 42° Northeast  Level Estimated
07:38PM 38.6012 -88.0452 42° Northeast  Level Estimated
07:39PM 38.6881 -87.9452 42° Northeast  Level Estimated
07:40PM 38.7749 -87.8449 42° Northeast  Level Estimated
07:41PM 38.8617 -87.7444 42° Northeast  Level Estimated
07:42PM 38.9483 -87.6436 42° Northeast  Level Estimated
07:43PM 39.0349 -87.5426 42° Northeast  Level Estimated
07:44PM 39.1214 -87.4413 42° Northeast  Level Estimated
07:45PM 39.2078 -87.3398 42° Northeast  Level Estimated
07:46PM 39.2941 -87.2380 42° Northeast  Level Estimated
07:47PM 39.3805 -87.1358 42° Northeast  Level Estimated
07:48PM 39.4668 -87.0332 42° Northeast  Level Estimated
07:49PM 39.5523 -86.9314 43° Northeast  Level Estimated
07:50PM 39.6382 -86.8286 43° Northeast  Level Estimated
07:51PM 39.7242 -86.7255 43° Northeast  Level Estimated
07:52PM 39.8100 -86.6221 43° Northeast  Level Estimated
07:53PM 39.8958 -86.5184 43° Northeast  Level Estimated
07:54PM 39.9815 -86.4145 43° Northeast  Level Estimated
07:55PM 40.0671 -86.3103 43° Northeast  Level Estimated
07:56PM 40.1526 -86.2058 43° Northeast  Level Estimated
07:57PM 40.2380 -86.1011 43° Northeast  Level Estimated
07:58PM 40.3233 -85.9961 43° Northeast  Level Estimated
07:59PM 40.4085 -85.8909 43° Northeast  Level Estimated
08:00PM 40.4935 -85.7855 43° Northeast  Level Estimated
08:01PM 40.5785 -85.6798 43° Northeast  Level Estimated
08:02PM 40.6633 -85.5738 43° Northeast  Level Estimated
08:03PM 40.7481 -85.4676 44° Northeast  Level Estimated
08:04PM 40.8328 -85.3611 44° Northeast  Level Estimated
08:05PM 40.9173 -85.2543 44° Northeast  Level Estimated
08:06PM 41.0015 -85.1476 44° Northeast  Level Estimated
08:07PM 41.0855 -85.0407 44° Northeast  Level Estimated
08:08PM 41.1695 -84.9335 44° Northeast  Level Estimated
08:09PM 41.2533 -84.8260 44° Northeast  Level Estimated
08:10PM 41.3371 -84.7183 44° Northeast  Level Estimated
08:11PM 41.4190 -84.6125 44° Northeast  Level Estimated
08:12PM 41.5008 -84.5064 44° Northeast  Level Estimated
08:13PM 41.5826 -84.4001 44° Northeast  Level Estimated
08:14PM 41.6642 -84.2935 44° Northeast  Level Estimated
08:15PM 41.7457 -84.1866 44° Northeast  Level Estimated
08:16PM 41.8272 -84.0795 44° Northeast  Level Estimated
08:17PM 41.9085 -83.9721 44° Northeast  Level Estimated
08:18PM 41.9895 -83.8647 56° Northeast  Level Estimated
08:19PM 42.0704 -83.7570 66° East  Level Estimated
08:20PM 42.1511 -83.6492 66° East  Level Estimated
08:20PM 41.9997 -84.4281 56° Northeast 351 404 10,100  Level Cleveland Center
08:21PM 42.2317 -83.5412 56° Northeast  Level Estimated
08:21PM 41.9911 -84.3103 96° East 339 390 10,000  Level Cleveland Center
08:22PM 42.2393 -83.5310 56° Northeast  Level Estimated
08:22PM 41.9839 -84.2092 95° East 307 353 10,100  Level Cleveland Center
08:22PM 41.9911 -84.1119 84° East 296 341 9,800 720 Descending Cleveland Center
08:23PM 42.2393 -83.5310 56° Northeast  Level Estimated
08:23PM 42.0003 -84.0817 68° East 283 326 11,000  Level Cleveland Center
08:24PM 42.2393 -83.5310 56° Northeast  Level Estimated
08:24PM 42.0378 -84.0139 53° Northeast 280 322 7,800  Level Cleveland Center
08:25PM 42.2393 -83.5310 56° Northeast  Level Estimated
08:25PM 42.0842 -83.9267 54° Northeast 273 314 5,900  Level Cleveland Center
08:26PM 42.1242 -83.8419 58° Northeast 264 304 3,500 -1,500 Descending Cleveland Center
08:27PM 42.1617 -83.7739 53° Northeast 245 282 3,000 -420 Descending Cleveland Center
08:27PM 42.1969 -83.7028 56° Northeast 243 280 2,800 -360 Descending Cleveland Center
08:29PM 42.2406 -83.6292 51° Northeast 182 209 2,300 -240 Descending Cleveland Center
08:30PM 42.2769 -83.5944 35° Northeast 167 192 2,300 -120 Level Cleveland Center
08:31PM 42.3033 -83.5450 54° Northeast 167 192 2,100 -420 Descending Cleveland Center
08:32PM 42.2750 -83.5017 131° Southeast 149 171 1,500 -600 Descending Cleveland Center